createdAt,value
2018-06-04T00:01:15.530Z,11.13
2018-06-04T00:03:45.255Z,11.10
2018-06-04T00:06:14.037Z,10.37
2018-06-04T00:08:42.849Z,10.50
2018-06-04T00:11:12.116Z,10.00
2018-06-04T00:13:41.289Z,9.90
2018-06-04T00:16:10.013Z,9.73
2018-06-04T00:18:38.787Z,14.23
2018-06-04T00:21:07.558Z,12.63
2018-06-04T00:23:36.381Z,13.73
2018-06-04T00:26:06.324Z,17.13
2018-06-04T00:28:35.126Z,15.27
2018-06-04T00:31:03.983Z,12.73
2018-06-04T00:33:32.897Z,11.90
2018-06-04T00:36:01.732Z,11.67
2018-06-04T00:38:30.825Z,13.67
2018-06-04T00:40:59.624Z,13.70
2018-06-04T00:43:28.309Z,9.00
2018-06-04T00:45:57.752Z,15.60
2018-06-04T00:48:27.663Z,14.43
2018-06-04T00:50:56.896Z,11.57
2018-06-04T00:53:25.725Z,15.50
2018-06-04T00:56:05.728Z,18.53
2018-06-04T00:58:34.565Z,10.37
2018-06-04T01:01:04.177Z,14.90
2018-06-04T01:03:33.045Z,15.83
2018-06-04T01:06:01.953Z,10.13
2018-06-04T01:08:32.037Z,13.70
2018-06-04T01:11:00.852Z,14.17
2018-06-04T01:13:29.642Z,11.40
2018-06-04T01:15:58.669Z,12.67
2018-06-04T01:18:28.094Z,11.53
2018-06-04T01:20:58.480Z,16.10
2018-06-04T01:23:27.512Z,11.33
2018-06-04T01:25:56.348Z,13.07
2018-06-04T01:28:25.568Z,25.23
2018-06-04T01:30:54.329Z,11.23
2018-06-04T01:33:23.380Z,13.53
2018-06-04T01:35:52.214Z,15.97
2018-06-04T01:38:21.876Z,14.10
2018-06-04T01:40:50.763Z,12.10
2018-06-04T01:43:19.547Z,11.23
2018-06-04T01:45:48.497Z,10.30
2018-06-04T01:48:19.060Z,13.97
2018-06-04T01:50:47.844Z,13.00
2018-06-04T01:53:17.584Z,13.00
2018-06-04T01:55:46.416Z,13.13
2018-06-04T01:58:15.235Z,11.60
2018-06-04T02:00:44.103Z,10.27
2018-06-04T02:03:13.540Z,9.67
2018-06-04T02:05:42.383Z,13.33
2018-06-04T02:08:11.228Z,13.13
2018-06-04T02:10:40.096Z,18.93
2018-06-04T02:13:09.880Z,21.20
2018-06-04T02:15:39.260Z,14.50
2018-06-04T02:18:07.960Z,13.10
2018-06-04T02:20:37.045Z,10.13
2018-06-04T02:23:05.819Z,15.63
2018-06-04T02:25:34.580Z,11.90
2018-06-04T02:28:03.837Z,12.40
2018-06-04T02:30:32.624Z,12.07
2018-06-04T02:33:01.420Z,15.53
2018-06-04T02:35:30.227Z,14.33
2018-06-04T02:37:59.085Z,12.80
2018-06-04T02:40:29.235Z,12.70
2018-06-04T02:42:58.213Z,12.93
2018-06-04T02:45:27.027Z,14.43
2018-06-04T02:47:55.909Z,13.10
2018-06-04T02:50:24.680Z,17.30
2018-06-04T02:52:53.909Z,16.13
2018-06-04T02:55:22.754Z,14.77
2018-06-04T02:57:51.504Z,14.40
2018-06-04T03:00:21.035Z,15.03
2018-06-04T03:02:49.897Z,28.23
2018-06-04T03:05:18.768Z,15.67
2018-06-04T03:07:47.617Z,19.23
2018-06-04T03:10:16.256Z,17.23
2018-06-04T03:12:45.023Z,13.40
2018-06-04T03:15:13.888Z,17.33
2018-06-04T03:17:42.705Z,11.77
2018-06-04T03:20:12.596Z,13.13
2018-06-04T03:22:41.266Z,11.47
2018-06-04T03:25:10.493Z,11.37
2018-06-04T03:27:40.328Z,15.97
2018-06-04T03:30:09.557Z,12.50
2018-06-04T03:32:38.265Z,9.70
2018-06-04T03:35:07.056Z,15.67
2018-06-04T03:37:35.873Z,19.60
2018-06-04T03:40:04.782Z,14.60
2018-06-04T03:42:33.766Z,15.63
2018-06-04T03:45:03.564Z,13.43
2018-06-04T03:47:32.427Z,19.50
2018-06-04T03:50:01.136Z,16.47
2018-06-04T03:52:30.021Z,16.17
2018-06-04T03:54:58.836Z,16.40
2018-06-04T03:57:27.625Z,16.27
2018-06-04T03:59:56.365Z,14.17
2018-06-04T04:02:25.319Z,23.83
2018-06-04T04:04:54.049Z,20.93
2018-06-04T04:07:22.961Z,17.53
2018-06-04T04:09:51.729Z,17.70
2018-06-04T04:12:20.722Z,15.20
2018-06-04T04:14:49.532Z,10.60
2018-06-04T04:17:18.288Z,13.70
2018-06-04T04:19:47.382Z,12.90
2018-06-04T04:22:16.179Z,18.70
2018-06-04T04:24:45.219Z,12.70
2018-06-04T04:27:14.096Z,14.73
2018-06-04T04:29:44.032Z,17.50
2018-06-04T04:32:13.304Z,14.90
2018-06-04T04:34:42.176Z,13.47
2018-06-04T04:37:10.859Z,14.33
2018-06-04T04:39:39.664Z,13.60
2018-06-04T04:42:08.528Z,17.33
2018-06-04T04:44:37.709Z,16.23
2018-06-04T04:47:06.722Z,20.13
2018-06-04T04:49:35.817Z,13.77
2018-06-04T04:52:04.645Z,15.07
2018-06-04T04:54:34.424Z,15.60
2018-06-04T04:57:03.404Z,17.47
2018-06-04T04:59:32.240Z,21.17
2018-06-04T05:02:00.992Z,12.70
2018-06-04T05:04:29.700Z,21.73
2018-06-04T05:06:59.436Z,12.63
2018-06-04T05:09:28.292Z,19.70
2018-06-04T05:11:57.091Z,18.40
2018-06-04T05:14:25.961Z,12.60
2018-06-04T05:16:54.865Z,18.63
2018-06-04T05:19:23.704Z,19.73
2018-06-04T05:21:52.532Z,15.03
2018-06-04T05:24:21.645Z,14.50
2018-06-04T05:26:50.590Z,19.10
2018-06-04T05:29:19.433Z,17.50
2018-06-04T05:31:48.412Z,18.27
2018-06-04T05:34:17.180Z,16.93
2018-06-04T05:36:45.842Z,17.27
2018-06-04T05:39:14.656Z,17.87
2018-06-04T05:41:43.626Z,20.03
2018-06-04T05:44:12.444Z,20.53
2018-06-04T05:46:41.327Z,18.50
2018-06-04T05:49:10.196Z,22.20
2018-06-04T05:51:39.063Z,15.47
2018-06-04T05:54:08.661Z,18.77
2018-06-04T05:56:37.536Z,23.57
2018-06-04T05:59:06.392Z,19.40
2018-06-04T06:01:35.137Z,22.00
2018-06-04T06:04:03.932Z,18.10
2018-06-04T06:06:32.945Z,15.60
2018-06-04T06:09:02.105Z,21.23
2018-06-04T06:11:30.995Z,14.37
2018-06-04T06:14:01.552Z,11.30
2018-06-04T06:16:32.012Z,16.00
2018-06-04T06:19:01.587Z,27.93
2018-06-04T06:21:30.406Z,16.40
2018-06-04T06:24:00.258Z,18.40
2018-06-04T06:26:29.388Z,13.10
2018-06-04T06:29:03.555Z,17.53
2018-06-04T06:31:32.964Z,14.60
2018-06-04T06:34:03.413Z,16.33
2018-06-04T06:36:33.422Z,15.57
2018-06-04T06:39:02.764Z,16.90
2018-06-04T06:41:31.384Z,17.93
2018-06-04T06:44:02.533Z,17.03
2018-06-04T06:46:32.533Z,14.70
2018-06-04T06:49:01.494Z,13.87
2018-06-04T06:51:30.948Z,39.33
2018-06-04T06:54:00.277Z,21.53
2018-06-04T06:56:29.135Z,13.37
2018-06-04T06:58:58.621Z,15.10
2018-06-04T07:01:29.289Z,14.00
2018-06-04T07:03:57.987Z,12.30
2018-06-04T07:06:27.685Z,16.73
2018-06-04T07:08:56.807Z,15.23
2018-06-04T07:11:26.089Z,12.83
2018-06-04T07:13:55.340Z,14.23
2018-06-04T07:16:24.230Z,12.10
2018-06-04T07:18:52.859Z,14.63
2018-06-04T07:21:21.697Z,13.27
2018-06-04T07:23:50.487Z,12.80
2018-06-04T07:26:19.311Z,12.60
2018-06-04T07:28:48.124Z,13.37
2018-06-04T07:31:17.771Z,19.50
2018-06-04T07:33:48.294Z,20.50
2018-06-04T07:36:17.589Z,17.53
2018-06-04T07:38:46.693Z,22.00
2018-06-04T07:41:16.005Z,16.70
2018-06-04T07:43:45.800Z,13.27
2018-06-04T07:46:15.409Z,14.80
2018-06-04T07:48:44.256Z,20.20
2018-06-04T07:51:13.108Z,17.70
2018-06-04T07:53:42.047Z,12.30
2018-06-04T07:56:10.847Z,20.37
2018-06-04T07:58:40.180Z,12.47
2018-06-04T08:01:09.225Z,13.30
2018-06-04T08:03:38.061Z,17.63
2018-06-04T08:06:06.883Z,14.87
2018-06-04T08:08:35.668Z,12.60
2018-06-04T08:11:04.425Z,18.57
2018-06-04T08:13:33.469Z,13.03
2018-06-04T08:16:02.311Z,18.07
2018-06-04T08:18:33.072Z,13.30
2018-06-04T08:21:04.437Z,11.90
2018-06-04T08:23:33.292Z,31.40
2018-06-04T08:26:02.117Z,24.53
2018-06-04T08:28:31.375Z,14.30
2018-06-04T08:31:00.260Z,14.10
2018-06-04T08:33:29.135Z,12.63
2018-06-04T08:35:57.844Z,11.53
2018-06-04T08:38:26.779Z,13.33
2018-06-04T08:40:56.148Z,12.00
2018-06-04T08:43:24.919Z,10.57
2018-06-04T08:45:53.855Z,21.20
2018-06-04T08:48:22.697Z,13.60
2018-06-04T08:50:51.636Z,12.37
2018-06-04T08:53:20.381Z,16.20
2018-06-04T08:55:50.045Z,11.57
2018-06-04T08:58:18.801Z,10.30
2018-06-04T09:00:47.662Z,16.83
2018-06-04T09:03:16.733Z,9.50
2018-06-04T09:05:45.542Z,11.40
2018-06-04T09:08:14.232Z,8.47
2018-06-04T09:10:43.040Z,9.60
2018-06-04T09:13:21.401Z,8.23
2018-06-04T09:15:51.835Z,8.13
2018-06-04T09:18:22.608Z,8.20
2018-06-04T09:20:51.908Z,7.50
2018-06-04T09:23:20.844Z,6.57
2018-06-04T09:25:51.619Z,6.53
2018-06-04T09:28:20.554Z,8.63
2018-06-04T09:30:53.031Z,12.53
2018-06-04T09:33:22.279Z,12.40
2018-06-04T09:35:51.181Z,9.30
2018-06-04T09:38:20.078Z,9.23
2018-06-04T09:40:48.936Z,5.77
2018-06-04T09:43:21.073Z,8.60
2018-06-04T09:45:50.054Z,9.33
2018-06-04T09:48:19.316Z,7.30
2018-06-04T09:50:48.100Z,5.40
2018-06-04T09:53:16.913Z,8.13
2018-06-04T09:55:45.677Z,4.60
2018-06-04T09:58:14.636Z,6.50
2018-06-04T10:00:43.617Z,4.40
2018-06-04T10:03:12.518Z,7.87
2018-06-04T10:05:41.369Z,7.23
2018-06-04T10:08:10.077Z,6.20
2018-06-04T10:10:39.348Z,4.95
2018-06-04T10:13:08.057Z,5.33
2018-06-04T10:15:37.376Z,3.92
2018-06-04T10:18:06.908Z,3.75
2018-06-04T10:20:35.713Z,4.53
2018-06-04T10:23:04.866Z,4.85
2018-06-04T10:25:33.807Z,4.53
2018-06-04T10:28:02.680Z,5.87
2018-06-04T10:30:31.509Z,6.53
2018-06-04T10:33:00.265Z,4.80
2018-06-04T10:35:29.193Z,4.10
2018-06-04T10:37:58.052Z,5.60
2018-06-04T10:40:26.879Z,10.60
2018-06-04T10:42:55.645Z,4.17
2018-06-04T10:45:24.515Z,5.80
2018-06-04T10:47:53.240Z,4.33
2018-06-04T10:50:21.999Z,4.47
2018-06-04T10:52:50.840Z,4.70
2018-06-04T10:55:19.693Z,5.70
2018-06-04T10:57:48.564Z,5.37
2018-06-04T11:00:17.746Z,6.97
2018-06-04T11:02:46.616Z,4.33
2018-06-04T11:05:16.449Z,8.20
2018-06-04T11:07:45.228Z,3.67
2018-06-04T11:10:13.820Z,4.13
2018-06-04T11:12:42.653Z,3.93
2018-06-04T11:15:11.616Z,4.60
2018-06-04T11:17:41.291Z,3.33
2018-06-04T11:20:10.144Z,4.20
2018-06-04T11:22:38.893Z,3.47
2018-06-04T11:25:08.076Z,3.60
2018-06-04T11:27:36.900Z,4.80
2018-06-04T11:30:06.146Z,7.73
2018-06-04T11:32:35.064Z,11.50
2018-06-04T11:35:03.864Z,4.50
2018-06-04T11:37:33.045Z,5.43
2018-06-04T11:40:01.900Z,3.27
2018-06-04T11:42:30.838Z,6.83
2018-06-04T11:44:59.663Z,6.53
2018-06-04T11:47:28.375Z,4.67
2018-06-04T11:49:57.476Z,3.93
2018-06-04T11:52:26.404Z,3.47
2018-06-04T11:54:55.193Z,2.77
2018-06-04T11:57:24.111Z,3.33
2018-06-04T11:59:52.973Z,4.40
2018-06-04T12:02:22.068Z,4.60
2018-06-04T12:04:50.867Z,2.90
2018-06-04T12:07:20.150Z,5.05
2018-06-04T12:09:48.976Z,2.83
2018-06-04T12:12:17.638Z,3.80
2018-06-04T12:14:46.492Z,3.67
2018-06-04T12:17:15.312Z,4.25
2018-06-04T12:19:44.148Z,3.17
2018-06-04T12:22:13.009Z,12.58
2018-06-04T12:24:41.880Z,3.12
2018-06-04T12:27:10.788Z,2.60
2018-06-04T12:29:40.216Z,2.70
2018-06-04T12:32:09.179Z,2.77
2018-06-04T12:34:37.976Z,3.67
2018-06-04T12:37:06.900Z,2.67
2018-06-04T12:39:35.918Z,3.15
2018-06-04T12:42:04.728Z,3.02
2018-06-04T12:44:33.408Z,3.25
2018-06-04T12:47:02.227Z,3.30
2018-06-04T12:49:31.367Z,2.65
2018-06-04T12:52:00.325Z,2.80
2018-06-04T12:54:29.118Z,2.45
2018-06-04T12:56:58.131Z,5.62
2018-06-04T12:59:27.165Z,3.33
2018-06-04T13:01:56.169Z,3.00
2018-06-04T13:04:25.147Z,4.12
2018-06-04T13:06:53.843Z,3.30
2018-06-04T13:09:22.684Z,3.00
2018-06-04T13:11:52.521Z,9.13
2018-06-04T13:14:21.328Z,3.90
2018-06-04T13:16:50.606Z,4.50
2018-06-04T13:19:20.174Z,3.87
2018-06-04T13:21:48.915Z,6.67
2018-06-04T13:24:18.240Z,3.03
2018-06-04T13:26:48.964Z,5.20
2018-06-04T13:29:17.787Z,3.50
2018-06-04T13:31:46.641Z,9.23
2018-06-04T13:34:15.698Z,3.77
2018-06-04T13:36:44.540Z,3.15
2018-06-04T13:39:13.567Z,5.55
2018-06-04T13:41:42.716Z,4.80
2018-06-04T13:44:11.452Z,2.70
2018-06-04T13:46:42.397Z,5.55
2018-06-04T13:49:11.306Z,3.20
2018-06-04T13:51:40.012Z,3.13
2018-06-04T13:54:09.162Z,3.40
2018-06-04T13:56:37.896Z,3.80
2018-06-04T13:59:07.100Z,3.85
2018-06-04T14:01:36.728Z,3.35
2018-06-04T14:04:05.487Z,6.42
2018-06-04T14:06:34.308Z,3.50
2018-06-04T14:09:03.536Z,6.60
2018-06-04T14:11:32.748Z,6.20
2018-06-04T14:14:01.565Z,4.80
2018-06-04T14:16:30.408Z,4.20
2018-06-04T14:18:59.615Z,5.60
2018-06-04T14:21:28.440Z,8.83
2018-06-04T14:23:57.578Z,4.57
2018-06-04T14:26:27.290Z,4.70
2018-06-04T14:28:56.347Z,4.90
2018-06-04T14:31:25.172Z,5.60
2018-06-04T14:33:54.209Z,5.40
2018-06-04T14:36:23.012Z,8.67
2018-06-04T14:38:52.139Z,4.67
2018-06-04T14:41:21.059Z,6.80
2018-06-04T14:43:51.149Z,6.73
2018-06-04T14:46:20.632Z,5.00
2018-06-04T14:48:50.161Z,7.07
2018-06-04T14:51:19.053Z,6.90
2018-06-04T14:53:47.923Z,6.37
2018-06-04T14:56:17.198Z,3.90
2018-06-04T14:58:45.909Z,6.63
2018-06-04T15:01:14.802Z,4.40
2018-06-04T15:03:44.000Z,4.60
2018-06-04T15:06:13.231Z,6.37
2018-06-04T15:08:42.252Z,5.37
2018-06-04T15:11:11.302Z,5.03
2018-06-04T15:13:40.373Z,4.33
2018-06-04T15:16:09.573Z,5.27
2018-06-04T15:18:38.738Z,7.97
2018-06-04T15:21:07.925Z,14.77
2018-06-04T15:23:37.224Z,7.33
2018-06-04T15:26:05.841Z,6.70
2018-06-04T15:28:35.222Z,10.73
2018-06-04T15:31:04.474Z,6.67
2018-06-04T15:33:34.966Z,4.70
2018-06-04T15:36:03.784Z,10.80
2018-06-04T15:38:33.223Z,4.50
2018-06-04T15:41:02.467Z,6.87
2018-06-04T15:43:32.723Z,6.30
2018-06-04T15:46:02.756Z,6.70
2018-06-04T15:48:39.576Z,6.67
2018-06-04T15:51:09.862Z,6.13
2018-06-04T15:53:42.867Z,5.10
2018-06-04T15:56:11.964Z,6.53
2018-06-04T15:58:40.976Z,5.87
2018-06-04T16:01:10.079Z,7.03
2018-06-04T16:03:38.795Z,7.53
2018-06-04T16:06:09.340Z,5.20
2018-06-04T16:08:38.565Z,8.40
2018-06-04T16:11:13.487Z,7.63
2018-06-04T16:13:44.536Z,8.97
2018-06-04T16:16:13.475Z,6.43
2018-06-04T16:18:42.402Z,6.67
2018-06-04T16:21:12.176Z,8.73
2018-06-04T16:23:40.936Z,6.60
2018-06-04T16:26:09.912Z,8.93
2018-06-04T16:28:38.725Z,11.23
2018-06-04T16:31:07.924Z,9.07
2018-06-04T16:33:37.052Z,18.43
2018-06-04T16:36:06.191Z,42.00
2018-06-04T16:38:34.940Z,24.37
2018-06-04T16:41:03.844Z,9.40
2018-06-04T16:43:33.199Z,7.00
2018-06-04T16:46:02.124Z,7.90
2018-06-04T16:48:31.040Z,12.93
2018-06-04T16:51:02.257Z,13.77
2018-06-04T16:53:31.071Z,10.37
2018-06-04T16:56:01.258Z,9.00
2018-06-04T16:58:30.480Z,10.17
2018-06-04T17:00:59.225Z,9.80
2018-06-04T17:03:28.625Z,7.80
2018-06-04T17:05:57.428Z,10.13
2018-06-04T17:08:26.450Z,9.47
2018-06-04T17:10:55.268Z,12.00
2018-06-04T17:13:24.152Z,6.97
2018-06-04T17:15:52.889Z,6.67
2018-06-04T17:18:22.695Z,6.60
2018-06-04T17:20:52.524Z,10.53
2018-06-04T17:23:21.348Z,8.47
2018-06-04T17:25:50.557Z,11.00
2018-06-04T17:28:19.225Z,10.33
2018-06-04T17:30:47.896Z,9.77
2018-06-04T17:33:17.188Z,11.33
2018-06-04T17:35:46.044Z,7.17
2018-06-04T17:38:15.195Z,8.10
2018-06-04T17:40:44.273Z,9.63
2018-06-04T17:43:14.043Z,13.03
2018-06-04T17:45:43.740Z,10.07
2018-06-04T17:48:13.055Z,7.27
2018-06-04T17:50:42.409Z,9.53
2018-06-04T17:53:11.546Z,6.83
2018-06-04T17:55:40.249Z,8.40
2018-06-04T17:58:09.088Z,14.10
2018-06-04T18:00:38.348Z,7.50
2018-06-04T18:03:07.448Z,7.60
2018-06-04T18:05:36.818Z,10.60
2018-06-04T18:08:07.560Z,13.30
2018-06-04T18:10:36.536Z,7.27
2018-06-04T18:13:05.508Z,6.37
2018-06-04T18:15:35.348Z,7.90
2018-06-04T18:18:10.479Z,6.57
2018-06-04T18:20:40.049Z,13.60
2018-06-04T18:23:09.058Z,7.40
2018-06-04T18:25:39.421Z,8.00
2018-06-04T18:28:09.549Z,8.83
2018-06-04T18:30:38.815Z,15.53
2018-06-04T18:33:07.902Z,6.30
2018-06-04T18:35:36.807Z,5.30
2018-06-04T18:38:06.457Z,9.30
2018-06-04T18:40:35.851Z,7.90
2018-06-04T18:43:05.228Z,6.43
2018-06-04T18:45:34.694Z,8.10
2018-06-04T18:48:03.838Z,7.87
2018-06-04T18:50:33.036Z,8.00
2018-06-04T18:53:02.448Z,8.53
2018-06-04T18:55:31.411Z,7.63
2018-06-04T18:58:02.089Z,11.63
2018-06-04T19:00:31.453Z,10.50
2018-06-04T19:03:00.862Z,7.47
2018-06-04T19:05:30.362Z,11.20
2018-06-04T19:08:00.457Z,6.83
2018-06-04T19:10:30.741Z,9.23
2018-06-04T19:13:01.284Z,7.83
2018-06-04T19:15:31.931Z,7.73
2018-06-04T19:18:01.443Z,7.93
2018-06-04T19:20:31.047Z,9.50
2018-06-04T19:23:00.452Z,18.10
2018-06-04T19:25:29.895Z,13.33
2018-06-04T19:27:59.724Z,8.33
2018-06-04T19:30:30.223Z,10.10
2018-06-04T19:33:00.361Z,5.80
2018-06-04T19:35:33.584Z,10.47
2018-06-04T19:38:02.978Z,9.03
2018-06-04T19:40:32.759Z,18.77
2018-06-04T19:43:03.245Z,8.40
2018-06-04T19:45:32.753Z,6.93
2018-06-04T19:48:02.348Z,10.67
2018-06-04T19:50:32.998Z,11.87
2018-06-04T19:53:02.996Z,15.67
2018-06-04T19:55:32.659Z,9.30
2018-06-04T19:58:01.998Z,17.20
2018-06-04T20:00:32.648Z,9.60
2018-06-04T20:03:02.614Z,13.13
2018-06-04T20:05:33.531Z,29.77
2018-06-04T20:08:03.848Z,23.73
2018-06-04T20:10:33.340Z,26.10
2018-06-04T20:13:03.696Z,23.30
2018-06-04T20:15:33.099Z,29.97
2018-06-04T20:18:02.640Z,21.00
2018-06-04T20:20:31.795Z,21.23
2018-06-04T20:23:01.300Z,14.60
2018-06-04T20:25:32.087Z,16.33
2018-06-04T20:28:02.273Z,18.43
2018-06-04T20:30:32.668Z,12.67
2018-06-04T20:33:02.499Z,12.77
2018-06-04T20:35:31.521Z,8.90
2018-06-04T20:38:00.277Z,11.87
2018-06-04T20:40:29.495Z,10.70
2018-06-04T20:42:58.500Z,12.77
2018-06-04T20:45:27.854Z,9.57
2018-06-04T20:47:57.543Z,13.93
2018-06-04T20:50:26.472Z,9.27
2018-06-04T20:52:56.076Z,18.90
2018-06-04T20:55:25.032Z,6.33
2018-06-04T20:57:54.253Z,9.17
2018-06-04T21:00:23.116Z,9.13
2018-06-04T21:02:52.261Z,9.87
2018-06-04T21:05:21.496Z,12.00
2018-06-04T21:07:50.992Z,10.97
2018-06-04T21:10:20.913Z,9.90
2018-06-04T21:12:49.961Z,11.80
2018-06-04T21:15:19.146Z,13.33
2018-06-04T21:17:47.975Z,11.03
2018-06-04T21:20:17.029Z,14.77
2018-06-04T21:22:45.848Z,11.27
2018-06-04T21:25:15.248Z,21.70
2018-06-04T21:27:44.207Z,16.97
2018-06-04T21:30:13.434Z,11.37
2018-06-04T21:32:42.627Z,15.57
2018-06-04T21:35:11.428Z,14.53
2018-06-04T21:37:40.259Z,17.40
2018-06-04T21:40:09.312Z,14.83
2018-06-04T21:42:38.153Z,13.30
2018-06-04T21:45:07.116Z,11.40
2018-06-04T21:47:35.944Z,12.30
2018-06-04T21:50:04.944Z,8.93
2018-06-04T21:52:34.796Z,11.03
2018-06-04T21:55:03.687Z,16.10
2018-06-04T21:57:32.735Z,12.33
2018-06-04T22:00:01.691Z,11.77
2018-06-04T22:02:30.835Z,16.10
2018-06-04T22:04:59.673Z,18.80
2018-06-04T22:07:28.545Z,18.93
2018-06-04T22:09:57.433Z,10.77
2018-06-04T22:12:26.279Z,13.90
2018-06-04T22:14:55.421Z,18.63
2018-06-04T22:17:24.559Z,12.80
2018-06-04T22:19:54.260Z,14.50
2018-06-04T22:22:23.132Z,12.00
2018-06-04T22:24:51.895Z,15.03
2018-06-04T22:27:20.719Z,16.07
2018-06-04T22:29:49.480Z,18.60
2018-06-04T23:37:49.035Z,14.23
2018-06-04T23:40:17.852Z,19.63
2018-06-04T23:42:47.324Z,17.80
2018-06-04T23:45:16.079Z,13.87
2018-06-04T23:47:44.837Z,18.17
2018-06-04T23:50:13.587Z,14.80
2018-06-04T23:52:43.083Z,16.13
2018-06-04T23:55:11.759Z,15.50
2018-06-04T23:57:40.567Z,15.33
